Time;durP1;ratioP1;P1;durP2;ratioP2;P2;SDS_P1;SDS_P2;PMS_P1;PMS_P2;Temp;Humidity;BMP_temperature;BMP_pressure;BME280_temperature;BME280_humidity;BME280_pressure;Samples;Min_cycle;Max_cycle;Signal;HPM_P1;HPM_P2
2022/08/28 00:01:20;;;;;;;1.70;1.38;;;21.20;55.00;;;;;;5025499;28;20103;-87
2022/08/28 00:03:45;;;;;;;2.30;1.75;;;21.10;54.90;;;;;;5023260;28;20440;-85
2022/08/28 00:06:11;;;;;;;1.88;1.30;;;21.10;55.00;;;;;;5040909;28;20757;-87
2022/08/28 00:08:37;;;;;;;1.95;1.60;;;21.00;54.90;;;;;;5017225;28;20048;-87
2022/08/28 00:11:05;;;;;;;4.15;1.70;;;21.00;55.00;;;;;;5022534;28;20018;-86
2022/08/28 00:13:31;;;;;;;2.20;1.90;;;21.00;55.10;;;;;;5022117;28;20630;-87
2022/08/28 00:15:59;;;;;;;3.35;2.17;;;20.90;55.00;;;;;;5026912;28;20338;-85
2022/08/28 00:18:27;;;;;;;2.75;2.10;;;20.90;55.00;;;;;;5022059;28;20567;-86
2022/08/28 00:20:54;;;;;;;2.10;1.50;;;20.90;55.10;;;;;;5023514;28;20500;-86
2022/08/28 00:23:20;;;;;;;3.35;2.42;;;20.80;55.00;;;;;;5020053;28;20373;-86
2022/08/28 00:25:47;;;;;;;1.70;1.60;;;20.80;55.10;;;;;;4989828;28;20049;-87
2022/08/28 00:28:14;;;;;;;2.10;1.90;;;20.80;55.10;;;;;;5021011;28;20423;-87
2022/08/28 00:30:47;;;;;;;2.42;1.60;;;20.70;55.00;;;;;;5023777;28;20022;-88
2022/08/28 00:33:18;;;;;;;3.88;1.65;;;20.60;54.90;;;;;;5022016;28;20524;-86
2022/08/28 00:35:45;;;;;;;2.20;1.90;;;20.60;55.00;;;;;;5023413;28;20009;-87
2022/08/28 00:38:12;;;;;;;2.92;2.05;;;20.60;55.00;;;;;;5023222;28;20129;-85
2022/08/28 00:40:41;;;;;;;2.72;1.88;;;20.60;55.10;;;;;;5023271;28;20052;-88
2022/08/28 00:43:08;;;;;;;2.10;1.50;;;20.50;55.00;;;;;;5023313;28;20040;-86
2022/08/28 00:45:34;;;;;;;2.38;1.45;;;20.50;55.10;;;;;;5024629;28;20396;-83
2022/08/28 00:48:01;;;;;;;2.20;1.90;;;20.50;55.20;;;;;;5003329;28;20045;-82
2022/08/28 00:52:04;;;;;;;3.42;2.05;;;20.40;55.00;;;;;;5019610;28;20041;-84
2022/08/28 00:53:19;;;;;;;3.05;1.77;;;20.40;55.10;;;;;;5024441;28;20040;-85
2022/08/28 00:55:46;;;;;;;5.25;1.73;;;20.30;55.00;;;;;;5006524;28;20029;-84
2022/08/28 00:58:12;;;;;;;1.98;1.30;;;20.30;55.00;;;;;;5023542;28;20393;-84
2022/08/28 01:00:39;;;;;;;3.97;1.80;;;20.30;55.10;;;;;;5023456;28;20063;-84
2022/08/28 01:03:05;;;;;;;2.47;1.40;;;20.30;55.20;;;;;;5023861;28;20013;-84
2022/08/28 01:05:33;;;;;;;2.22;1.67;;;20.30;55.20;;;;;;5038924;28;20037;-86
2022/08/28 01:08:00;;;;;;;2.58;2.00;;;20.20;55.10;;;;;;5022830;28;20117;-86
2022/08/28 01:10:29;;;;;;;2.75;2.30;;;20.20;55.20;;;;;;5019490;28;20121;-86
2022/08/28 01:12:57;;;;;;;2.92;2.17;;;20.20;55.30;;;;;;5021458;28;20083;-88
2022/08/28 01:15:34;;;;;;;3.70;1.90;;;20.10;55.10;;;;;;5022796;28;20037;-87
2022/08/28 01:18:08;;;;;;;2.22;1.50;;;20.10;55.20;;;;;;5019582;28;20018;-87
2022/08/28 01:20:36;;;;;;;3.50;1.98;;;20.10;55.30;;;;;;4988778;28;20287;-86
2022/08/28 01:23:23;;;;;;;3.20;1.92;;;20.00;55.20;;;;;;5024858;28;20123;-84
2022/08/28 01:25:49;;;;;;;3.25;1.88;;;20.00;55.40;;;;;;4993309;28;20109;-88
2022/08/28 01:28:15;;;;;;;2.05;1.85;;;19.90;55.10;;;;;;5026024;28;20096;-86
2022/08/28 01:30:44;;;;;;;3.10;2.13;;;19.90;55.30;;;;;;5026492;28;20234;-86
2022/08/28 01:33:13;;;;;;;2.22;2.03;;;19.90;55.40;;;;;;5026352;28;20039;-88
2022/08/28 01:35:43;;;;;;;2.88;1.98;;;19.90;55.40;;;;;;5026582;28;20029;-88
2022/08/28 01:38:10;;;;;;;2.50;1.85;;;19.80;55.30;;;;;;5026836;28;20453;-90
2022/08/28 01:40:39;;;;;;;2.95;1.70;;;19.80;55.40;;;;;;5009580;28;20037;-88
2022/08/28 01:43:26;;;;;;;3.20;2.50;;;19.80;55.50;;;;;;5026479;28;20028;-89
2022/08/28 01:46:00;;;;;;;2.63;2.22;;;19.70;55.50;;;;;;5025944;28;20038;-86
2022/08/28 01:48:28;;;;;;;2.00;1.80;;;19.70;55.50;;;;;;5009720;28;20045;-87
2022/08/28 01:50:55;;;;;;;2.30;1.92;;;19.60;55.40;;;;;;5042337;28;20412;-85
2022/08/28 01:53:23;;;;;;;2.75;2.08;;;19.60;55.40;;;;;;5043545;28;20437;-86
2022/08/28 01:55:50;;;;;;;2.53;1.80;;;19.60;55.60;;;;;;5026882;28;20018;-84
2022/08/28 01:58:16;;;;;;;2.90;2.25;;;19.50;55.50;;;;;;5026471;28;20028;-86
2022/08/28 02:00:43;;;;;;;2.45;2.25;;;19.50;55.60;;;;;;5025264;28;20538;-85
2022/08/28 02:03:09;;;;;;;2.42;2.22;;;19.40;55.50;;;;;;5008374;28;20356;-85
2022/08/28 02:05:36;;;;;;;2.15;1.92;;;19.40;55.60;;;;;;5029425;28;20514;-85
2022/08/28 02:08:05;;;;;;;3.83;2.17;;;19.40;55.70;;;;;;5026819;28;20033;-85
2022/08/28 02:10:34;;;;;;;3.55;2.33;;;19.40;55.80;;;;;;5028632;28;20089;-86
2022/08/28 02:13:00;;;;;;;2.65;2.05;;;19.30;55.70;;;;;;5008844;28;20034;-86
2022/08/28 02:15:28;;;;;;;6.20;3.38;;;19.30;55.80;;;;;;5028360;28;20373;-85
2022/08/28 02:17:56;;;;;;;2.88;2.08;;;19.20;55.80;;;;;;5025365;28;20051;-85
2022/08/28 02:20:23;;;;;;;3.13;2.05;;;19.20;55.80;;;;;;5026843;28;20346;-85
2022/08/28 02:22:49;;;;;;;3.22;1.95;;;19.20;56.00;;;;;;5024142;28;20037;-83
2022/08/28 02:25:15;;;;;;;2.97;2.25;;;19.10;55.80;;;;;;5026357;28;20025;-86
2022/08/28 02:27:41;;;;;;;4.05;2.08;;;19.10;56.00;;;;;;5009353;28;20045;-86
2022/08/28 02:30:10;;;;;;;2.40;2.13;;;19.10;56.00;;;;;;5027076;28;20033;-85
2022/08/28 02:32:36;;;;;;;3.17;1.90;;;19.10;56.20;;;;;;5024519;28;20048;-86
2022/08/28 02:35:04;;;;;;;3.28;1.85;;;19.00;56.10;;;;;;5027566;28;20055;-87
2022/08/28 02:37:30;;;;;;;3.17;2.63;;;19.00;56.20;;;;;;5027623;28;20106;-87
2022/08/28 02:39:57;;;;;;;2.05;1.85;;;19.00;56.30;;;;;;5027174;28;20120;-86
2022/08/28 02:42:25;;;;;;;2.35;2.15;;;19.00;56.30;;;;;;5024379;28;20825;-85
2022/08/28 02:44:51;;;;;;;4.05;2.42;;;19.00;56.40;;;;;;5009534;28;20032;-87
2022/08/28 02:47:18;;;;;;;2.63;1.83;;;19.00;56.50;;;;;;5028289;28;20046;-86
2022/08/28 02:49:44;;;;;;;3.00;1.90;;;19.00;56.60;;;;;;5010021;28;20400;-83
2022/08/28 02:52:11;;;;;;;3.90;2.30;;;18.90;56.40;;;;;;5008846;28;20554;-84
2022/08/28 02:54:38;;;;;;;2.25;1.98;;;18.90;56.50;;;;;;4993714;28;20384;-84
2022/08/28 02:57:08;;;;;;;2.63;2.25;;;18.90;56.60;;;;;;5026205;28;20017;-87
2022/08/28 02:59:37;;;;;;;3.85;2.00;;;18.90;56.70;;;;;;5027409;28;20048;-86
2022/08/28 03:02:06;;;;;;;3.47;2.88;;;18.90;56.70;;;;;;5027020;28;20570;-85
2022/08/28 03:04:36;;;;;;;3.88;2.58;;;18.80;56.60;;;;;;5014084;28;20534;-87
2022/08/28 03:07:06;;;;;;;3.08;2.35;;;18.80;56.70;;;;;;5048205;28;20063;-86
2022/08/28 03:09:34;;;;;;;3.05;2.17;;;18.80;56.70;;;;;;5049066;28;20044;-85
2022/08/28 03:11:59;;;;;;;3.35;2.22;;;18.80;56.80;;;;;;5041703;28;20034;-86
2022/08/28 03:14:26;;;;;;;3.45;2.35;;;18.80;56.90;;;;;;5048515;28;20102;-87
2022/08/28 03:16:52;;;;;;;3.67;2.40;;;18.80;57.00;;;;;;5011030;28;20123;-87
2022/08/28 03:19:18;;;;;;;3.20;2.40;;;18.80;57.10;;;;;;5034209;28;20097;-87
2022/08/28 03:21:44;;;;;;;2.60;2.40;;;18.70;57.00;;;;;;5002521;28;20101;-86
2022/08/28 03:24:10;;;;;;;3.05;2.60;;;18.70;57.10;;;;;;5030216;28;20045;-86
2022/08/28 03:26:36;;;;;;;3.70;2.67;;;18.70;57.20;;;;;;5031912;28;20025;-87
2022/08/28 03:29:02;;;;;;;3.72;2.50;;;18.60;57.10;;;;;;5039485;28;20133;-86
2022/08/28 03:31:32;;;;;;;9.60;3.38;;;18.60;57.20;;;;;;5034196;28;20120;-85
2022/08/28 03:33:58;;;;;;;3.30;2.90;;;18.70;57.60;;;;;;5033756;28;21363;-86
2022/08/28 03:36:26;;;;;;;5.18;2.90;;;18.60;57.50;;;;;;5039713;28;20081;-86
2022/08/28 03:38:55;;;;;;;4.40;2.90;;;18.60;57.60;;;;;;5012499;28;20033;-87
2022/08/28 03:41:23;;;;;;;4.32;3.42;;;18.60;57.70;;;;;;5029494;28;20154;-86
2022/08/28 03:43:49;;;;;;;3.72;2.83;;;18.60;57.80;;;;;;5027669;28;20033;-85
2022/08/28 03:46:19;;;;;;;5.20;3.60;;;18.60;57.80;;;;;;5022696;28;20359;-84
2022/08/28 03:48:46;;;;;;;4.68;3.85;;;18.60;58.00;;;;;;5023940;28;20052;-85
2022/08/28 03:51:18;;;;;;;4.50;3.40;;;18.60;58.00;;;;;;5027130;28;20424;-84
2022/08/28 03:53:44;;;;;;;5.22;3.40;;;18.60;58.20;;;;;;5025942;28;20039;-84
2022/08/28 03:56:17;;;;;;;4.60;3.50;;;18.50;58.00;;;;;;5024957;28;20030;-85
2022/08/28 03:58:43;;;;;;;5.03;3.58;;;18.60;58.30;;;;;;5008776;28;20025;-85
2022/08/28 04:01:10;;;;;;;6.85;4.18;;;18.50;58.20;;;;;;5025343;28;20511;-86
2022/08/28 04:03:36;;;;;;;4.18;3.78;;;18.50;58.90;;;;;;5025953;28;20025;-90
2022/08/28 04:06:02;;;;;;;5.65;4.70;;;18.50;58.40;;;;;;5009884;28;20029;-87
2022/08/28 04:08:29;;;;;;;4.80;4.32;;;18.50;58.50;;;;;;5027019;28;20044;-89
2022/08/28 04:10:55;;;;;;;7.18;4.13;;;18.50;59.20;;;;;;5026152;28;20025;-86
2022/08/28 04:13:22;;;;;;;6.03;4.85;;;18.50;58.70;;;;;;5024850;28;20102;-88
2022/08/28 04:16:09;;;;;;;6.40;5.05;;;18.50;58.80;;;;;;5024827;28;20034;-85
2022/08/28 04:18:37;;;;;;;5.53;4.95;;;18.50;59.00;;;;;;5019899;28;20119;-88
2022/08/28 04:21:10;;;;;;;5.60;4.40;;;18.40;58.80;;;;;;5025168;28;20115;-85
2022/08/28 04:23:37;;;;;;;5.18;4.65;;;18.50;59.10;;;;;;5024511;28;20038;-86
2022/08/28 04:26:05;;;;;;;8.65;5.70;;;18.40;59.00;;;;;;5025858;28;20068;-86
2022/08/28 04:28:32;;;;;;;6.47;5.88;;;18.40;59.10;;;;;;5008924;28;20365;-85
2022/08/28 04:30:58;;;;;;;8.35;5.40;;;18.40;59.20;;;;;;5007042;28;20377;-85
2022/08/28 04:33:26;;;;;;;6.25;5.20;;;18.40;59.30;;;;;;5025351;28;20075;-85
2022/08/28 04:35:52;;;;;;;7.43;5.57;;;18.40;59.40;;;;;;4989555;28;20632;-87
2022/08/28 04:38:19;;;;;;;8.45;5.95;;;18.40;59.50;;;;;;5026091;28;20041;-85
2022/08/28 04:40:45;;;;;;;8.95;6.07;;;18.40;59.60;;;;;;5024713;28;20029;-85
2022/08/28 04:43:12;;;;;;;7.68;5.47;;;18.40;59.70;;;;;;5025821;28;20304;-91
2022/08/28 04:45:40;;;;;;;7.40;5.75;;;18.30;59.60;;;;;;5042536;28;20113;-91
2022/08/28 04:48:07;;;;;;;6.90;6.10;;;18.30;59.70;;;;;;5007897;28;20038;-89
2022/08/28 04:50:33;;;;;;;9.07;6.18;;;18.40;60.00;;;;;;5005231;28;20128;-88
2022/08/28 04:52:59;;;;;;;6.28;5.68;;;18.30;60.00;;;;;;5024582;28;20029;-89
2022/08/28 04:55:27;;;;;;;7.05;6.35;;;18.30;60.00;;;;;;5008324;28;20032;-88
2022/08/28 04:57:53;;;;;;;6.32;5.45;;;18.30;60.10;;;;;;5010709;28;20036;-85
2022/08/28 05:00:19;;;;;;;7.22;6.05;;;18.30;60.30;;;;;;5027585;28;20022;-86
2022/08/28 05:02:45;;;;;;;7.47;6.13;;;18.20;60.10;;;;;;5009962;28;20184;-82
2022/08/28 05:05:11;;;;;;;6.40;5.80;;;18.20;60.20;;;;;;5028174;28;20098;-83
2022/08/28 05:07:38;;;;;;;7.78;5.55;;;18.20;60.30;;;;;;5028662;28;20022;-85
2022/08/28 05:10:06;;;;;;;7.80;5.88;;;18.20;60.40;;;;;;5046196;28;20483;-82
2022/08/28 05:12:35;;;;;;;8.68;6.90;;;18.10;60.30;;;;;;5028330;28;20733;-82
2022/08/28 05:15:02;;;;;;;7.38;6.57;;;18.10;60.40;;;;;;5009417;28;20029;-82
2022/08/28 05:17:37;;;;;;;7.22;5.72;;;18.10;60.50;;;;;;5028826;28;20195;-83
2022/08/28 05:20:04;;;;;;;7.38;6.10;;;18.10;60.60;;;;;;5026947;28;20065;-81
2022/08/28 05:22:31;;;;;;;8.80;7.22;;;18.10;60.70;;;;;;5007783;28;20088;-80
2022/08/28 05:24:57;;;;;;;9.23;6.60;;;18.00;60.60;;;;;;5024950;28;20021;-82
2022/08/28 05:27:23;;;;;;;7.60;6.20;;;18.00;60.70;;;;;;5042760;28;20365;-82
2022/08/28 05:29:49;;;;;;;10.32;7.22;;;18.00;60.80;;;;;;5026350;28;20045;-83
2022/08/28 05:32:15;;;;;;;11.75;7.50;;;18.00;60.90;;;;;;5027905;28;20032;-84
2022/08/28 05:34:42;;;;;;;7.22;5.75;;;17.90;60.80;;;;;;5009624;28;20037;-83
2022/08/28 05:37:08;;;;;;;7.32;6.63;;;17.90;61.00;;;;;;5026630;28;20072;-81
2022/08/28 05:39:35;;;;;;;6.95;5.97;;;18.00;61.20;;;;;;5028271;28;20469;-82
2022/08/28 05:42:02;;;;;;;10.32;6.88;;;17.90;61.10;;;;;;4993225;28;20025;-84
2022/08/28 05:44:28;;;;;;;7.40;5.85;;;18.00;61.30;;;;;;5026678;28;20033;-84
2022/08/28 05:46:54;;;;;;;7.93;6.55;;;18.00;61.40;;;;;;5025275;28;20499;-82
2022/08/28 05:49:20;;;;;;;9.35;6.97;;;18.00;61.40;;;;;;5025638;28;20083;-83
2022/08/28 05:51:47;;;;;;;9.27;6.63;;;18.00;61.50;;;;;;5025624;28;20025;-84
2022/08/28 05:54:14;;;;;;;9.43;6.20;;;18.00;61.50;;;;;;5009351;28;20045;-83
2022/08/28 05:56:43;;;;;;;8.32;6.53;;;18.00;61.50;;;;;;5025638;28;20017;-78
2022/08/28 05:59:12;;;;;;;7.47;5.90;;;18.10;61.70;;;;;;5024107;28;20669;-80
2022/08/28 06:01:45;;;;;;;6.28;5.68;;;18.10;61.80;;;;;;5041423;28;20021;-81
2022/08/28 06:04:16;;;;;;;8.63;5.95;;;18.10;61.80;;;;;;5026353;28;20044;-81
2022/08/28 06:06:45;;;;;;;7.88;6.47;;;18.10;61.70;;;;;;5026760;28;20022;-83
2022/08/28 06:09:21;;;;;;;7.32;5.80;;;18.10;61.70;;;;;;5025509;28;20033;-85
2022/08/28 06:11:48;;;;;;;7.78;5.20;;;18.20;62.00;;;;;;5007417;28;20465;-83
2022/08/28 06:14:18;;;;;;;8.05;5.70;;;18.20;61.90;;;;;;5008273;28;20029;-85
2022/08/28 06:16:47;;;;;;;6.68;5.50;;;18.20;61.90;;;;;;5007332;28;20580;-80
2022/08/28 06:19:15;;;;;;;6.28;5.25;;;18.20;61.90;;;;;;5026545;28;20030;-80
2022/08/28 06:21:42;;;;;;;8.07;5.65;;;18.20;61.90;;;;;;5024543;28;20029;-81
2022/08/28 06:24:09;;;;;;;6.85;4.70;;;18.20;61.90;;;;;;5006278;28;20492;-81
2022/08/28 06:26:35;;;;;;;6.25;5.30;;;18.30;62.10;;;;;;5024322;28;20114;-84
2022/08/28 06:29:05;;;;;;;6.20;5.45;;;18.30;62.10;;;;;;5024474;28;20037;-84
2022/08/28 06:31:32;;;;;;;7.45;5.40;;;18.30;62.10;;;;;;5008408;28;20033;-85
2022/08/28 06:33:59;;;;;;;6.28;4.63;;;18.30;62.10;;;;;;5024602;28;20087;-86
2022/08/28 06:36:27;;;;;;;6.88;4.22;;;18.40;62.30;;;;;;5022368;28;20846;-83
2022/08/28 06:38:56;;;;;;;5.20;4.57;;;18.40;62.20;;;;;;5024464;28;20029;-87
2022/08/28 06:41:23;;;;;;;5.68;4.90;;;18.50;62.20;;;;;;5006716;28;20029;-86
2022/08/28 06:43:51;;;;;;;5.68;4.57;;;18.60;62.30;;;;;;5006699;28;20049;-85
2022/08/28 06:46:17;;;;;;;7.22;4.35;;;18.80;62.40;;;;;;5008535;28;20112;-82
2022/08/28 06:48:43;;;;;;;4.53;4.13;;;18.90;62.30;;;;;;5020768;28;20045;-86
2022/08/28 06:51:11;;;;;;;4.57;3.97;;;19.00;62.20;;;;;;5003076;28;20075;-85
2022/08/28 06:53:38;;;;;;;6.88;4.43;;;19.20;62.40;;;;;;5021579;28;20430;-83
2022/08/28 06:56:07;;;;;;;5.78;4.50;;;19.30;62.30;;;;;;5003586;28;20025;-86
2022/08/28 06:58:42;;;;;;;3.90;3.60;;;19.40;62.10;;;;;;5029413;28;20049;-84
2022/08/28 07:01:15;;;;;;;4.18;3.75;;;19.50;62.10;;;;;;5024104;28;20275;-83
2022/08/28 07:03:44;;;;;;;4.38;3.97;;;19.70;62.20;;;;;;5022487;28;20025;-85
2022/08/28 07:06:11;;;;;;;6.05;3.83;;;19.80;62.00;;;;;;5006823;28;20201;-84
2022/08/28 07:08:38;;;;;;;5.00;3.08;;;19.90;61.90;;;;;;5032171;28;20060;-81
2022/08/28 07:11:12;;;;;;;4.53;3.50;;;20.10;62.10;;;;;;5029525;28;20049;-83
2022/08/28 07:13:39;;;;;;;4.03;3.55;;;20.20;62.50;;;;;;5043368;28;20033;-84
2022/08/28 07:16:06;;;;;;;7.70;3.10;;;20.30;62.70;;;;;;5047047;28;20232;-83
2022/08/28 07:18:32;;;;;;;5.07;3.63;;;20.50;63.30;;;;;;5047821;28;20044;-81
2022/08/28 07:20:59;;;;;;;4.22;3.28;;;20.60;63.70;;;;;;5047347;28;20048;-84
2022/08/28 07:23:30;;;;;;;4.68;3.80;;;20.70;64.00;;;;;;5031215;28;20396;-83
2022/08/28 07:25:57;;;;;;;4.75;3.05;;;20.80;64.40;;;;;;5025403;28;20022;-83
2022/08/28 07:28:23;;;;;;;4.93;2.75;;;21.00;64.60;;;;;;5025870;28;20117;-82
2022/08/28 07:31:17;;;;;;;4.65;3.17;;;21.10;64.90;;;;;;5036743;28;20033;-83
2022/08/28 07:33:46;;;;;;;4.82;3.03;;;21.20;65.50;;;;;;5021046;28;20041;-83
2022/08/28 07:36:17;;;;;;;6.05;3.17;;;21.30;65.30;;;;;;5024848;28;20051;-79
2022/08/28 07:38:44;;;;;;;3.40;2.70;;;21.40;65.60;;;;;;5025912;28;20196;-87
2022/08/28 07:41:38;;;;;;;2.63;2.05;;;21.50;65.80;;;;;;5024280;28;20270;-82
2022/08/28 07:47:02;;;;;;;5.75;2.40;;;21.70;65.70;;;;;;5024871;28;20056;-87
2022/08/28 07:49:30;;;;;;;4.47;2.20;;;21.80;65.60;;;;;;5009233;28;20049;-87
2022/08/28 07:51:56;;;;;;;5.45;2.13;;;21.90;65.60;;;;;;5007348;28;20017;-85
2022/08/28 07:54:22;;;;;;;6.38;2.08;;;22.00;65.60;;;;;;4988733;28;20034;-85
2022/08/28 07:56:52;;;;;;;6.72;2.20;;;22.10;65.40;;;;;;5009021;28;20485;-85
2022/08/28 07:59:19;;;;;;;3.20;2.38;;;22.20;65.30;;;;;;5021562;28;20178;-86
2022/08/28 08:01:47;;;;;;;2.42;2.03;;;22.30;65.20;;;;;;5023915;28;20045;-85
2022/08/28 08:04:16;;;;;;;3.33;1.73;;;22.40;65.30;;;;;;5000546;28;20029;-89
2022/08/28 08:06:43;;;;;;;2.50;1.90;;;22.60;65.30;;;;;;5023826;28;20036;-86
2022/08/28 08:09:12;;;;;;;8.48;2.40;;;22.70;65.20;;;;;;5007972;28;20049;-80
2022/08/28 08:11:38;;;;;;;5.40;2.00;;;22.80;65.10;;;;;;5022275;28;20028;-83
2022/08/28 08:14:06;;;;;;;3.20;1.90;;;23.00;65.10;;;;;;5025711;28;20033;-82
2022/08/28 08:16:40;;;;;;;3.72;1.63;;;23.20;65.00;;;;;;5024545;28;20349;-84
2022/08/28 08:19:08;;;;;;;;;;;23.40;64.70;;;;;;5024749;28;20143;-86
2022/08/28 08:21:35;;;;;;;3.53;1.58;;;23.60;64.60;;;;;;5024833;28;20050;-85
2022/08/28 08:24:02;;;;;;;3.65;1.98;;;23.70;64.30;;;;;;5007333;28;20047;-85
2022/08/28 08:26:28;;;;;;;4.70;1.45;;;23.80;64.00;;;;;;4995167;28;20033;-85
2022/08/28 08:28:55;;;;;;;2.33;1.70;;;23.90;63.70;;;;;;5024476;28;20049;-84
2022/08/28 08:31:31;;;;;;;3.72;1.67;;;24.00;63.60;;;;;;5015878;28;20292;-82
2022/08/28 08:34:00;;;;;;;2.40;1.23;;;24.00;63.10;;;;;;5028635;28;20044;-85
2022/08/28 08:36:28;;;;;;;4.18;1.60;;;24.10;63.10;;;;;;5029548;28;20034;-86
2022/08/28 08:38:55;;;;;;;3.42;1.60;;;24.10;62.80;;;;;;5020101;28;20037;-86
2022/08/28 08:41:47;;;;;;;2.60;1.42;;;24.20;62.80;;;;;;5031208;28;20023;-85
2022/08/28 08:44:37;;;;;;;3.03;1.45;;;24.20;62.40;;;;;;5029876;28;20044;-83
2022/08/28 08:47:11;;;;;;;4.07;1.40;;;24.30;62.40;;;;;;5028269;28;20053;-84
2022/08/28 08:49:47;;;;;;;3.33;1.75;;;24.30;62.10;;;;;;5031570;28;20061;-81
2022/08/28 08:52:16;;;;;;;3.80;1.52;;;24.40;62.30;;;;;;5028037;28;20036;-84
2022/08/28 08:54:46;;;;;;;4.80;1.38;;;24.40;61.80;;;;;;5029936;28;20105;-85
2022/08/28 08:57:14;;;;;;;3.15;1.33;;;24.40;61.60;;;;;;5029622;28;20021;-82
2022/08/28 08:59:41;;;;;;;3.67;1.42;;;24.50;61.50;;;;;;5015673;28;20037;-83
2022/08/28 09:02:20;;;;;;;4.15;1.70;;;24.50;61.30;;;;;;5031752;28;20027;-88
2022/08/28 09:05:00;;;;;;;2.88;1.10;;;24.60;61.10;;;;;;5013843;28;20026;-81
2022/08/28 09:07:48;;;;;;;3.45;1.85;;;24.60;60.80;;;;;;5031151;28;20067;-82
2022/08/28 09:10:15;;;;;;;5.72;1.42;;;24.70;60.60;;;;;;5042217;28;20053;-86
2022/08/28 09:13:01;;;;;;;2.88;1.20;;;24.80;60.80;;;;;;5044629;28;20034;-83
2022/08/28 09:15:44;;;;;;;4.72;1.67;;;24.90;60.50;;;;;;5046598;28;20033;-84
2022/08/28 09:18:17;;;;;;;3.40;1.38;;;25.00;60.40;;;;;;5032735;28;20044;-88
2022/08/28 09:20:47;;;;;;;4.68;1.27;;;25.10;60.30;;;;;;5016995;28;20056;-89
2022/08/28 09:23:13;;;;;;;4.80;1.50;;;25.20;60.20;;;;;;5018217;28;20026;-93
2022/08/28 09:26:01;;;;;;;4.25;1.50;;;25.30;60.00;;;;;;5017737;28;20037;-91
2022/08/28 09:28:33;;;;;;;2.72;1.15;;;25.30;59.60;;;;;;5033424;28;20507;-91
2022/08/28 09:31:07;;;;;;;2.60;1.05;;;25.40;59.70;;;;;;5017897;28;20021;-91
2022/08/28 09:33:44;;;;;;;2.20;1.42;;;25.40;59.50;;;;;;5014710;28;20052;-90
2022/08/28 09:36:37;;;;;;;3.55;1.42;;;25.50;59.40;;;;;;5032101;28;20021;-91
2022/08/28 09:39:11;;;;;;;2.78;1.20;;;25.60;59.20;;;;;;5014354;28;20072;-89
2022/08/28 09:45:15;;;;;;;4.53;1.30;;;25.70;59.00;;;;;;5026812;28;20029;-87
2022/08/28 09:47:50;;;;;;;2.97;1.38;;;25.80;58.90;;;;;;5008280;28;20079;-88
2022/08/28 09:50:34;;;;;;;2.55;0.70;;;25.90;58.80;;;;;;5027396;28;20041;-89
2022/08/28 09:53:10;;;;;;;3.58;1.17;;;26.00;58.60;;;;;;5026517;28;20546;-91
2022/08/28 09:55:54;;;;;;;1.90;0.80;;;26.10;58.50;;;;;;5011177;28;20484;-87
2022/08/28 09:58:22;;;;;;;3.55;0.90;;;26.20;58.10;;;;;;5042004;28;20231;-94
2022/08/28 10:00:55;;;;;;;1.23;0.88;;;26.40;57.80;;;;;;5044949;28;20026;-88
2022/08/28 10:03:56;;;;;;;1.75;1.15;;;26.40;57.40;;;;;;5033402;28;20120;-91
2022/08/28 10:06:31;;;;;;;2.50;0.70;;;26.60;57.00;;;;;;5010940;28;20060;-93
2022/08/28 10:09:26;;;;;;;2.47;0.90;;;26.70;56.80;;;;;;5046091;28;20511;-92
2022/08/28 10:12:03;;;;;;;1.90;1.02;;;26.70;56.20;;;;;;5024934;28;20081;-96
2022/08/28 10:14:41;;;;;;;2.33;0.90;;;26.80;56.10;;;;;;5034862;28;20030;-94
2022/08/28 10:17:36;;;;;;;1.55;0.77;;;26.90;55.90;;;;;;5042067;28;20120;-86
2022/08/28 10:20:36;;;;;;;1.20;0.65;;;27.00;55.60;;;;;;5027973;28;20034;-90
2022/08/28 10:23:17;;;;;;;2.75;0.75;;;27.00;55.30;;;;;;5026850;28;20158;-87
2022/08/28 10:25:58;;;;;;;1.42;0.60;;;27.00;55.30;;;;;;5008484;28;20032;-88
2022/08/28 10:29:14;;;;;;;2.08;0.65;;;27.10;55.10;;;;;;5023255;28;20025;-89
2022/08/28 10:32:03;;;;;;;1.00;0.80;;;27.10;54.80;;;;;;5001492;28;20171;-87
2022/08/28 10:34:48;;;;;;;3.75;0.85;;;27.20;55.00;;;;;;5023380;28;20037;-92
2022/08/28 10:37:29;;;;;;;2.33;1.00;;;27.30;54.70;;;;;;5010030;28;20029;-87
2022/08/28 10:40:01;;;;;;;2.97;1.27;;;27.30;54.60;;;;;;5026533;28;20353;-88
2022/08/28 10:42:34;;;;;;;2.75;1.05;;;27.30;54.50;;;;;;5024516;28;20424;-88
2022/08/28 10:45:07;;;;;;;3.28;1.23;;;27.30;54.30;;;;;;5023655;28;20030;-85
2022/08/28 10:47:38;;;;;;;1.35;0.60;;;27.40;54.20;;;;;;5009969;28;20400;-90
2022/08/28 10:50:10;;;;;;;0.90;0.68;;;27.40;54.00;;;;;;5024319;28;20052;-90
2022/08/28 10:52:42;;;;;;;0.90;0.63;;;27.40;53.80;;;;;;5009802;28;20044;-83
2022/08/28 10:55:18;;;;;;;1.83;1.00;;;27.40;53.50;;;;;;5027023;28;20029;-84
2022/08/28 10:57:54;;;;;;;2.05;0.65;;;27.40;53.10;;;;;;5025179;28;20033;-84
2022/08/28 11:00:23;;;;;;;1.45;0.65;;;27.40;52.80;;;;;;5045579;28;20124;-85
2022/08/28 11:02:54;;;;;;;1.10;0.60;;;27.50;52.80;;;;;;5027248;28;20315;-84
2022/08/28 11:05:23;;;;;;;1.50;0.73;;;27.50;52.40;;;;;;5023184;28;20041;-84
2022/08/28 11:08:04;;;;;;;2.05;0.82;;;27.60;52.30;;;;;;5008895;28;20326;-85
2022/08/28 11:10:34;;;;;;;3.25;1.20;;;27.60;51.70;;;;;;5024365;28;20065;-86
2022/08/28 11:13:02;;;;;;;2.47;0.63;;;27.60;51.60;;;;;;5024315;28;20086;-84
2022/08/28 11:15:29;;;;;;;2.95;0.73;;;27.60;51.40;;;;;;5008834;28;20037;-83
2022/08/28 11:18:17;;;;;;;1.98;0.93;;;27.60;51.10;;;;;;5007001;28;20149;-85
2022/08/28 11:21:22;;;;;;;2.35;0.90;;;27.70;50.90;;;;;;4969018;28;20033;-86
2022/08/28 11:24:01;;;;;;;0.70;0.60;;;27.90;50.60;;;;;;4994827;28;20037;-85
2022/08/28 11:27:05;;;;;;;0.95;0.43;;;28.00;50.50;;;;;;5023815;28;20128;-86
2022/08/28 11:30:01;;;;;;;1.10;0.45;;;28.20;49.90;;;;;;5000415;28;20107;-85
2022/08/28 11:32:35;;;;;;;1.13;0.47;;;28.20;49.60;;;;;;5022707;28;20837;-83
2022/08/28 11:35:23;;;;;;;2.30;0.82;;;28.40;49.60;;;;;;5025257;28;20030;-84
2022/08/28 11:37:53;;;;;;;1.13;0.68;;;28.50;49.60;;;;;;4992428;28;20390;-83
2022/08/28 11:41:05;;;;;;;2.58;0.70;;;28.60;49.50;;;;;;5011903;28;20041;-88
2022/08/28 11:43:37;;;;;;;4.63;1.92;;;28.80;49.30;;;;;;5021727;28;20045;-86
2022/08/28 11:46:26;;;;;;;6.10;5.60;;;28.90;49.40;;;;;;5022984;28;20036;-84
2022/08/28 11:49:02;;;;;;;4.82;3.80;;;29.00;49.80;;;;;;5026304;28;20443;-83
2022/08/28 11:51:57;;;;;;;5.38;3.38;;;29.10;49.90;;;;;;5006957;28;20415;-82
2022/08/28 11:54:46;;;;;;;2.42;2.22;;;29.10;49.50;;;;;;5007529;28;20385;-81
2022/08/28 11:57:27;;;;;;;3.00;1.92;;;29.20;49.60;;;;;;5020271;28;20451;-78
2022/08/28 12:00:02;;;;;;;2.60;1.50;;;29.30;48.80;;;;;;5046658;28;20127;-83
2022/08/28 12:02:48;;;;;;;2.85;1.90;;;29.30;48.40;;;;;;5021914;28;20025;-83
2022/08/28 12:05:14;;;;;;;2.67;2.35;;;29.30;47.90;;;;;;5041294;28;20044;-83
2022/08/28 12:07:41;;;;;;;4.47;3.50;;;29.40;48.00;;;;;;5009418;28;20087;-81
2022/08/28 12:10:20;;;;;;;2.80;2.58;;;29.50;47.90;;;;;;5021918;28;20046;-82
2022/08/28 12:12:45;;;;;;;3.67;2.35;;;29.70;47.40;;;;;;5022784;28;20112;-81
2022/08/28 12:15:27;;;;;;;2.65;2.40;;;29.90;47.40;;;;;;5021780;28;20052;-80
2022/08/28 12:18:00;;;;;;;10.05;3.35;;;30.10;46.90;;;;;;5023408;28;20108;-87
2022/08/28 12:21:01;;;;;;;1.50;1.30;;;30.30;47.00;;;;;;5024503;28;20025;-94
2022/08/28 12:23:36;;;;;;;1.98;1.42;;;30.50;46.20;;;;;;5005301;28;20030;-93
2022/08/28 12:26:05;;;;;;;1.60;1.42;;;30.50;46.20;;;;;;5023855;28;20107;-93
2022/08/28 12:28:43;;;;;;;2.15;1.58;;;30.60;46.10;;;;;;5030789;28;20039;-95
2022/08/28 12:32:10;;;;;;;1.80;1.20;;;30.60;46.10;;;;;;5026711;28;20026;-92
2022/08/28 12:34:26;;;;;;;2.95;1.13;;;30.60;46.30;;;;;;5032772;28;20064;-93
2022/08/28 12:37:00;;;;;;;3.47;1.30;;;30.60;46.40;;;;;;5034270;28;20060;-92
2022/08/28 12:39:29;;;;;;;1.58;0.65;;;30.70;46.50;;;;;;5063717;28;20056;-89
2022/08/28 12:41:56;;;;;;;2.83;0.73;;;30.70;46.60;;;;;;5045593;28;20053;-93
2022/08/28 12:44:27;;;;;;;2.42;0.63;;;30.80;46.60;;;;;;5026538;28;20088;-94
2022/08/28 12:46:53;;;;;;;2.88;0.85;;;30.90;46.40;;;;;;5012468;28;20567;-89
2022/08/28 12:49:26;;;;;;;1.40;0.75;;;31.00;46.30;;;;;;5011413;28;20037;-87
2022/08/28 12:52:09;;;;;;;2.22;0.80;;;31.20;46.00;;;;;;5010366;28;20038;-88
2022/08/28 12:54:35;;;;;;;2.40;0.60;;;31.50;45.70;;;;;;5025871;28;20038;-86
2022/08/28 12:57:18;;;;;;;1.67;0.80;;;31.80;45.60;;;;;;5025483;28;20055;-88
2022/08/28 12:59:47;;;;;;;0.85;0.40;;;32.10;45.10;;;;;;5022796;28;20029;-83
2022/08/28 13:02:26;;;;;;;2.97;0.60;;;32.20;44.50;;;;;;5024058;28;20025;-88
2022/08/28 13:04:57;;;;;;;2.53;0.52;;;32.20;43.50;;;;;;5025163;28;20041;-84
2022/08/28 13:07:30;;;;;;;2.13;0.40;;;32.20;43.10;;;;;;5007508;28;20040;-84
2022/08/28 13:10:00;;;;;;;1.27;0.30;;;32.10;42.20;;;;;;5022758;28;20091;-84
2022/08/28 13:12:34;;;;;;;1.50;0.75;;;31.80;41.80;;;;;;5010066;28;20022;-84
2022/08/28 13:15:01;;;;;;;1.65;0.47;;;31.40;41.40;;;;;;5024047;28;20052;-86
2022/08/28 13:17:49;;;;;;;3.40;0.50;;;30.90;41.20;;;;;;5006985;28;20022;-83